Luckey, Ohio
Current Conditions -  °F | °C
As of 1:53 PM on Thursday 23 Oct 2014 (Local Time) from KTDZ Reporting Station
Clear Clear  
Wind Chill: 55°   Ceiling: Unl
Heat Index: 55°   Visibility: 10mi
Dew Point: 41°   Wind: 7mph
Humidity: 59%   Direction: 250°WSW
Pressure: 30.21"   Gusts: NA
Location:  41.45°N, 83.49°W
Report Text: KTDZ 231753Z AUTO 25006KT 10SM CLR 13/05 A3021 RMK AO2 SLP231 T01280050 10128 20011 58017 TSNO
Loading
Personal Weather Stations






























Interactive Weather Map
Tropical Storm Tracking
New forecast layout! Learn more

10-Day Weather Forecast

Advertisements
Track Severe Weather on mobile